Terminal Aerodrome Forecast
Issued by NWS

Home | Current Version | Previous Version | Text Only | Print | Product List | Glossary On
Versions: 1 2 3 4 5 6 7 8 9 10 11 12 13 14 15
000
FTUS45 KABQ 222100 AAB
TAFSAF
TAF AMD
KSAF 222111Z 2221/2318 36011KT P6SM SCT050 BKN090
     FM222300 12008KT P6SM VCTS SCT050CB BKN090
      TEMPO 2223/2301 VRB15G25KT -SHRA BKN040
     FM230100 32006KT P6SM -SHRA BKN040
     FM230400 VRB05KT P6SM SKC=

USA.gov is the U.S. government's official web portal to all federal, state and local government web resources and services.